createdAt,value
2022-07-30T00:04:11.516Z,3.03
2022-07-30T00:09:17.476Z,2.80
2022-07-30T00:14:21.178Z,3.10
2022-07-30T00:19:26.265Z,3.40
2022-07-30T00:24:30.278Z,3.90
2022-07-30T00:29:34.114Z,3.35
2022-07-30T00:34:40.082Z,3.28
2022-07-30T00:39:43.753Z,3.45
2022-07-30T00:44:47.526Z,3.90
2022-07-30T00:49:52.617Z,3.75
2022-07-30T00:54:59.647Z,3.58
2022-07-30T01:05:13.386Z,3.22
2022-07-30T01:10:22.482Z,3.40
2022-07-30T01:15:29.748Z,2.90
2022-07-30T01:20:38.685Z,3.50
2022-07-30T01:26:01.809Z,3.33
2022-07-30T01:31:09.139Z,3.20
2022-07-30T01:36:15.829Z,2.95
2022-07-30T01:41:30.633Z,3.00
2022-07-30T01:46:36.231Z,2.90
2022-07-30T01:51:40.766Z,3.07
2022-07-30T01:56:50.698Z,3.08
2022-07-30T02:01:54.819Z,2.60
2022-07-30T02:07:07.540Z,2.95
2022-07-30T02:12:29.887Z,3.22
2022-07-30T02:17:45.470Z,2.58
2022-07-30T02:22:51.277Z,2.92
2022-07-30T02:28:01.525Z,2.85
2022-07-30T02:33:10.619Z,2.55
2022-07-30T02:38:17.697Z,2.20
2022-07-30T02:43:26.089Z,2.45
2022-07-30T02:48:34.963Z,2.38
2022-07-30T02:53:41.593Z,3.00
2022-07-30T02:58:51.337Z,2.60
2022-07-30T03:03:59.361Z,2.97
2022-07-30T03:09:05.488Z,3.03
2022-07-30T03:14:11.265Z,2.50
2022-07-30T03:19:16.980Z,2.75
2022-07-30T03:24:24.457Z,2.43
2022-07-30T03:29:30.937Z,2.30
2022-07-30T03:34:35.513Z,2.63
2022-07-30T03:39:40.148Z,2.60
2022-07-30T03:44:46.584Z,3.10
2022-07-30T03:49:52.415Z,3.10
2022-07-30T03:54:56.403Z,3.15
2022-07-30T04:00:18.269Z,2.90
2022-07-30T04:05:26.874Z,3.25
2022-07-30T04:10:33.774Z,4.07
2022-07-30T04:16:05.968Z,5.13
2022-07-30T04:21:17.316Z,4.45
2022-07-30T04:26:23.420Z,4.55
2022-07-30T04:31:29.955Z,5.25
2022-07-30T04:36:41.330Z,5.47
2022-07-30T04:41:48.978Z,4.65
2022-07-30T04:47:12.095Z,4.68
2022-07-30T04:52:29.407Z,5.15
2022-07-30T04:57:37.289Z,5.55
2022-07-30T05:02:44.418Z,5.32
2022-07-30T05:07:48.723Z,4.88
2022-07-30T05:12:52.820Z,5.22
2022-07-30T05:18:00.346Z,5.72
2022-07-30T05:28:08.928Z,5.10
2022-07-30T05:33:16.060Z,4.75
2022-07-30T05:38:20.837Z,4.18
2022-07-30T05:44:01.197Z,4.18
2022-07-30T05:49:06.870Z,4.55
2022-07-30T05:54:10.994Z,4.00
2022-07-30T05:59:34.999Z,4.25
2022-07-30T06:04:46.259Z,4.25
2022-07-30T06:09:50.348Z,3.38
2022-07-30T06:14:54.081Z,2.97
2022-07-30T06:20:05.501Z,3.80
2022-07-30T06:25:20.545Z,3.40
2022-07-30T06:30:30.216Z,3.67
2022-07-30T06:35:36.759Z,3.53
2022-07-30T06:40:41.147Z,2.95
2022-07-30T06:45:54.803Z,2.97
2022-07-30T06:51:07.742Z,1.95
2022-07-30T06:56:12.956Z,1.40
2022-07-30T07:01:33.618Z,1.83
2022-07-30T07:06:39.433Z,1.58
2022-07-30T07:11:44.170Z,1.80
2022-07-30T07:22:14.175Z,1.50
2022-07-30T07:27:21.145Z,1.95
2022-07-30T07:32:27.462Z,1.90
2022-07-30T07:37:32.613Z,1.52
2022-07-30T07:42:36.374Z,1.80
2022-07-30T07:47:52.024Z,2.08
2022-07-30T07:53:17.271Z,1.65
2022-07-30T07:58:25.445Z,1.10
2022-07-30T08:03:33.567Z,1.05
2022-07-30T08:08:45.950Z,1.08
2022-07-30T08:14:23.686Z,1.30
2022-07-30T08:19:45.779Z,0.85
2022-07-30T08:24:56.607Z,0.93
2022-07-30T08:30:00.354Z,1.25
2022-07-30T08:35:04.329Z,0.82
2022-07-30T08:40:11.796Z,0.80
2022-07-30T08:45:34.727Z,0.68
2022-07-30T08:50:51.896Z,0.80
2022-07-30T08:56:13.098Z,0.77
2022-07-30T09:01:16.987Z,0.63
2022-07-30T09:06:20.948Z,1.00
2022-07-30T09:11:26.206Z,0.70
2022-07-30T09:16:29.820Z,0.73
2022-07-30T09:21:35.992Z,0.50
2022-07-30T09:27:01.396Z,0.80
2022-07-30T09:32:25.638Z,0.70
2022-07-30T09:43:30.066Z,0.80
2022-07-30T09:48:47.489Z,0.90
2022-07-30T09:53:56.005Z,0.90
2022-07-30T09:59:03.333Z,0.90
2022-07-30T10:04:08.369Z,0.80
2022-07-30T10:09:42.621Z,0.63
2022-07-30T10:14:54.026Z,1.17
2022-07-30T10:19:58.126Z,0.50
2022-07-30T10:25:28.167Z,0.73
2022-07-30T10:30:52.865Z,0.55
2022-07-30T10:35:57.500Z,0.65
2022-07-30T10:41:09.130Z,1.03
2022-07-30T10:46:27.091Z,0.82
2022-07-30T10:51:46.582Z,0.88
2022-07-30T10:57:05.140Z,1.23
2022-07-30T11:02:11.362Z,0.82
2022-07-30T11:07:31.634Z,1.27
2022-07-30T11:12:56.261Z,0.90
2022-07-30T11:18:04.944Z,0.93
2022-07-30T11:23:40.573Z,1.13
2022-07-30T11:28:50.076Z,0.90
2022-07-30T11:34:15.746Z,0.70
2022-07-30T11:39:20.859Z,0.80
2022-07-30T11:44:33.412Z,0.90
2022-07-30T11:49:37.454Z,0.85
2022-07-30T11:54:54.137Z,1.15
2022-07-30T12:05:01.739Z,0.65
2022-07-30T12:10:26.930Z,1.17
2022-07-30T12:15:33.295Z,0.70
2022-07-30T12:20:37.148Z,0.75
2022-07-30T12:25:47.684Z,0.70
2022-07-30T12:30:56.624Z,0.90
2022-07-30T12:36:01.435Z,0.70
2022-07-30T12:41:06.955Z,0.57
2022-07-30T12:46:14.770Z,0.77
2022-07-30T12:51:19.203Z,0.75
2022-07-30T12:56:26.713Z,1.30
2022-07-30T13:01:43.863Z,1.20
2022-07-30T13:07:06.605Z,0.80
2022-07-30T13:12:15.254Z,0.80
2022-07-30T13:17:19.879Z,0.77
2022-07-30T13:22:23.647Z,0.60
2022-07-30T13:27:28.984Z,1.17
2022-07-30T13:32:33.145Z,0.70
2022-07-30T13:37:38.219Z,0.60
2022-07-30T13:42:43.748Z,0.80
2022-07-30T13:47:48.490Z,0.65
2022-07-30T13:52:52.173Z,0.73
2022-07-30T13:57:57.276Z,0.80
2022-07-30T14:03:01.869Z,1.13
2022-07-30T14:08:07.813Z,0.80
2022-07-30T14:13:21.146Z,0.70
2022-07-30T14:18:25.185Z,1.10
2022-07-30T14:23:29.233Z,0.70
2022-07-30T14:28:34.422Z,0.75
2022-07-30T14:33:38.429Z,0.70
2022-07-30T14:38:42.078Z,0.85
2022-07-30T14:43:47.130Z,0.70
2022-07-30T14:48:51.373Z,1.00
2022-07-30T14:53:55.185Z,1.00
2022-07-30T14:59:01.898Z,0.88
2022-07-30T15:04:09.445Z,0.82
2022-07-30T15:09:13.153Z,1.00
2022-07-30T15:14:19.924Z,0.77
2022-07-30T15:19:26.803Z,1.00
2022-07-30T15:24:30.673Z,0.80
2022-07-30T15:29:35.783Z,1.00
2022-07-30T15:34:39.429Z,0.77
2022-07-30T15:39:46.223Z,0.88
2022-07-30T15:45:15.542Z,0.98
2022-07-30T15:50:16.821Z,0.90
2022-07-30T15:55:20.682Z,0.90
2022-07-30T16:00:26.604Z,0.88
2022-07-30T16:05:51.453Z,1.00
2022-07-30T16:10:57.194Z,1.00
2022-07-30T16:16:02.501Z,1.15
2022-07-30T16:21:09.406Z,0.68
2022-07-30T16:26:16.757Z,0.85
2022-07-30T16:31:25.445Z,0.98
2022-07-30T16:36:30.265Z,1.00
2022-07-30T16:41:33.961Z,1.17
2022-07-30T16:46:48.355Z,1.23
2022-07-30T16:51:54.040Z,1.10
2022-07-30T16:56:57.969Z,1.00
2022-07-30T17:02:08.562Z,1.10
2022-07-30T17:07:13.433Z,2.70
2022-07-30T17:12:17.207Z,1.48
2022-07-30T17:17:32.145Z,1.30
2022-07-30T17:22:42.966Z,1.20
2022-07-30T17:27:47.129Z,1.40
2022-07-30T17:32:52.796Z,0.93
2022-07-30T17:37:57.686Z,1.10
2022-07-30T17:43:04.909Z,1.40
2022-07-30T17:48:10.613Z,1.00
2022-07-30T17:53:14.732Z,1.60
2022-07-30T17:58:18.583Z,0.82
2022-07-30T18:03:27.660Z,0.88
2022-07-30T18:08:32.945Z,1.30
2022-07-30T18:13:36.802Z,0.73
2022-07-30T18:18:41.945Z,1.10
2022-07-30T18:23:45.642Z,1.00
2022-07-30T18:28:50.856Z,1.33
2022-07-30T18:33:56.010Z,0.93
2022-07-30T18:38:59.732Z,1.08
2022-07-30T18:44:03.463Z,1.20
2022-07-30T18:49:33.951Z,0.82
2022-07-30T18:54:32.280Z,1.15
2022-07-30T18:59:36.258Z,1.02
2022-07-30T19:04:41.345Z,1.20
2022-07-30T19:09:46.061Z,1.50
2022-07-30T19:14:49.937Z,1.67
2022-07-30T19:19:55.077Z,1.52
2022-07-30T19:24:58.877Z,1.05
2022-07-30T19:30:03.630Z,1.50
2022-07-30T19:35:13.336Z,1.42
2022-07-30T19:40:18.830Z,1.50
2022-07-30T19:45:22.530Z,1.67
2022-07-30T19:50:29.115Z,2.35
2022-07-30T19:55:35.756Z,1.75
2022-07-30T20:00:39.711Z,1.33
2022-07-30T20:05:57.276Z,1.95
2022-07-30T20:11:03.441Z,1.42
2022-07-30T20:16:12.233Z,1.50
2022-07-30T20:21:17.449Z,2.03
2022-07-30T20:26:24.111Z,2.25
2022-07-30T20:31:31.216Z,1.88
2022-07-30T20:36:37.333Z,2.28
2022-07-30T20:41:41.035Z,2.08
2022-07-30T20:46:44.794Z,2.30
2022-07-30T20:51:51.605Z,1.98
2022-07-30T20:56:55.440Z,1.90
2022-07-30T21:01:59.947Z,2.00
2022-07-30T21:07:05.305Z,2.35
2022-07-30T21:12:09.213Z,2.85
2022-07-30T21:17:16.212Z,2.00
2022-07-30T21:22:23.103Z,2.27
2022-07-30T21:27:30.588Z,2.63
2022-07-30T21:32:34.318Z,1.98
2022-07-30T21:37:42.893Z,2.05
2022-07-30T21:42:48.184Z,2.05
2022-07-30T21:47:52.717Z,2.30
2022-07-30T21:52:57.848Z,2.25
2022-07-30T21:58:02.285Z,1.97
2022-07-30T22:03:12.669Z,1.83
2022-07-30T22:08:33.053Z,2.35
2022-07-30T22:13:51.257Z,2.05
2022-07-30T22:18:57.838Z,2.28
2022-07-30T22:24:03.122Z,2.30
2022-07-30T22:29:06.811Z,2.10
2022-07-30T22:34:13.098Z,2.22
2022-07-30T22:39:22.017Z,1.70
2022-07-30T22:44:26.201Z,1.77
2022-07-30T22:49:45.431Z,2.22
2022-07-30T22:54:55.411Z,1.90
2022-07-30T23:00:00.698Z,1.80
2022-07-30T23:05:06.749Z,1.90
2022-07-30T23:10:18.067Z,1.95
2022-07-30T23:15:22.673Z,1.90
2022-07-30T23:20:26.520Z,1.83
2022-07-30T23:25:34.548Z,1.50
2022-07-30T23:30:42.475Z,1.55
2022-07-30T23:35:46.717Z,1.60
2022-07-30T23:40:51.860Z,1.25
2022-07-30T23:45:55.721Z,1.27
2022-07-30T23:50:59.913Z,1.00
2022-07-30T23:56:05.361Z,0.95
